Time;durP1;ratioP1;P1;durP2;ratioP2;P2;SDS_P1;SDS_P2;PMS_P1;PMS_P2;Temp;Humidity;BMP_temperature;BMP_pressure;BME280_temperature;BME280_humidity;BME280_pressure;Samples;Min_cycle;Max_cycle;Signal;HPM_P1;HPM_P2
2022/01/15 00:00:14;;;;;;;;;;;25.10;99.90;;;;;;5073374;28;20325;-70
2022/01/15 00:02:41;;;;;;;;;;;25.20;99.90;;;;;;5073835;28;19962;-70
2022/01/15 00:05:08;;;;;;;;;;;25.30;99.90;;;;;;5073404;28;19954;-70
2022/01/15 00:07:35;;;;;;;;;;;25.40;99.90;;;;;;5073394;28;20043;-70
2022/01/15 00:10:02;;;;;;;;;;;25.60;99.90;;;;;;5072486;28;19967;-72
2022/01/15 00:12:36;;;;;;;;;;;25.80;99.90;;;;;;5073517;28;20280;-71
2022/01/15 00:15:03;;;;;;;;;;;25.80;99.90;;;;;;5073563;28;19908;-71
2022/01/15 00:17:51;;;;;;;;;;;25.90;99.90;;;;;;5073552;28;19919;-71
2022/01/15 00:20:20;;;;;;;;;;;26.00;99.90;;;;;;5073205;28;19908;-70
2022/01/15 00:22:48;;;;;;;;;;;26.20;99.90;;;;;;5084299;28;19912;-69
2022/01/15 00:25:15;;;;;;;;;;;26.60;99.90;;;;;;5072820;28;19909;-70
2022/01/15 00:27:41;;;;;;;;;;;26.60;99.90;;;;;;5073555;28;19916;-70
2022/01/15 00:30:08;;;;;;;;;;;26.50;99.90;;;;;;5073134;28;19908;-71
2022/01/15 00:32:35;;;;;;;;;;;26.30;99.90;;;;;;5073036;28;19909;-71
2022/01/15 00:35:02;;;;;;;;;;;26.20;99.90;;;;;;5073046;28;19916;-71
2022/01/15 00:37:32;;;;;;;;;;;26.20;99.90;;;;;;5072973;28;19908;-71
2022/01/15 00:39:59;;;;;;;;;;;26.10;99.90;;;;;;5072280;28;19916;-71
2022/01/15 00:42:27;;;;;;;;;;;26.20;99.90;;;;;;5073041;28;19916;-70
2022/01/15 00:44:56;;;;;;;;;;;26.30;99.90;;;;;;5073075;28;19909;-70
2022/01/15 00:47:25;;;;;;;;;;;26.20;99.90;;;;;;5072825;28;19917;-70
2022/01/15 00:49:52;;;;;;;;;;;26.20;99.90;;;;;;5071248;28;19912;-72
2022/01/15 00:52:19;;;;;;;;;;;26.10;99.90;;;;;;5072649;28;19948;-71
2022/01/15 00:54:45;;;;;;;;;;;26.00;99.90;;;;;;5072522;28;19912;-70
2022/01/15 00:57:12;;;;;;;;;;;26.00;99.90;;;;;;5072827;28;19923;-71
2022/01/15 00:59:38;;;;;;;;;;;25.80;99.90;;;;;;5072658;28;19908;-70
2022/01/15 01:02:05;;;;;;;;;;;25.60;99.90;;;;;;5070968;28;19909;-71
2022/01/15 01:04:32;;;;;;;;;;;25.50;99.90;;;;;;5072469;28;19935;-71
2022/01/15 01:06:58;;;;;;;;;;;25.50;99.90;;;;;;5072479;28;19962;-71
2022/01/15 01:09:32;;;;;;;;;;;25.50;99.90;;;;;;5071557;28;19909;-71
2022/01/15 01:12:19;;;;;;;;;;;25.50;99.90;;;;;;5072395;28;19943;-71
2022/01/15 01:20:24;;;;;;;;;;;25.50;99.90;;;;;;5072527;28;19915;-71
2022/01/15 01:22:56;;;;;;;;;;;25.60;99.90;;;;;;5072658;28;19915;-71
2022/01/15 01:25:28;;;;;;;;;;;25.50;99.90;;;;;;5072336;28;19908;-71
2022/01/15 01:28:02;;;;;;;;;;;25.50;99.90;;;;;;5072148;28;19978;-71
2022/01/15 01:30:35;;;;;;;;;;;25.50;99.90;;;;;;5072464;28;20275;-71
2022/01/15 01:33:51;;;;;;;;;;;25.50;99.90;;;;;;5072345;28;20045;-71
2022/01/15 01:41:18;;;;;;;;;;;25.50;99.90;;;;;;5072397;28;19908;-71
2022/01/15 01:44:04;;;;;;;;;;;25.40;99.90;;;;;;5072272;28;19940;-71
2022/01/15 01:46:41;;;;;;;;;;;25.50;99.90;;;;;;5072169;28;19912;-71
2022/01/15 01:49:10;;;;;;;;;;;25.50;99.90;;;;;;5072245;28;19916;-72
2022/01/15 01:51:41;;;;;;;;;;;25.50;99.90;;;;;;5072151;28;19908;-72
2022/01/15 01:54:08;;;;;;;;;;;25.60;99.90;;;;;;5072020;28;19915;-71
2022/01/15 01:56:35;;;;;;;;;;;25.60;99.90;;;;;;5086099;28;19912;-71
2022/01/15 01:59:03;;;;;;;;;;;25.60;99.90;;;;;;5091568;28;19908;-71
2022/01/15 02:01:30;;;;;;;;;;;25.70;99.90;;;;;;5092332;28;19909;-71
2022/01/15 02:03:57;;;;;;;;;;;25.70;99.90;;;;;;5091433;28;20406;-71
2022/01/15 02:06:23;;;;;;;;;;;25.80;99.90;;;;;;5092438;28;19916;-71
2022/01/15 02:08:51;;;;;;;;;;;25.80;99.90;;;;;;5092387;28;19912;-71
2022/01/15 02:11:17;;;;;;;;;;;25.80;99.90;;;;;;5092103;28;19924;-71
2022/01/15 02:13:45;;;;;;;;;;;25.90;99.90;;;;;;5092156;28;20009;-72
2022/01/15 02:16:31;;;;;;;;;;;26.00;99.90;;;;;;5092053;28;19908;-71
2022/01/15 02:18:58;;;;;;;;;;;26.30;99.90;;;;;;5093394;28;19908;-72
2022/01/15 02:24:09;;;;;;;;;;;26.80;99.90;;;;;;5096163;28;19919;-71
2022/01/15 02:26:38;;;;;;;;;;;26.90;99.90;;;;;;5095864;28;19923;-72
2022/01/15 02:29:05;;;;;;;;;;;27.20;99.90;;;;;;5095707;28;19908;-72
2022/01/15 02:31:32;;;;;;;;;;;27.40;99.90;;;;;;5095763;28;19916;-72
2022/01/15 02:34:01;;;;;;;;;;;27.60;99.90;;;;;;5095399;28;19908;-70
2022/01/15 02:36:32;;;;;;;;;;;27.80;99.90;;;;;;5095964;28;19914;-70
2022/01/15 02:38:59;;;;;;;;;;;27.80;99.90;;;;;;5095673;28;20365;-71
2022/01/15 02:41:33;;;;;;;;;;;27.80;99.90;;;;;;5095552;28;19919;-70
2022/01/15 02:44:00;;;;;;;;;;;27.90;99.90;;;;;;5095241;28;19946;-71
2022/01/15 02:48:59;;;;;;;;;;;27.90;99.90;;;;;;5095466;28;19919;-71
2022/01/15 02:51:26;;;;;;;;;;;27.80;99.90;;;;;;5095493;28;19909;-72
2022/01/15 02:53:56;;;;;;;;;;;27.60;99.90;;;;;;5095286;28;19909;-71
2022/01/15 02:56:27;;;;;;;;;;;27.60;99.90;;;;;;5095420;28;19908;-70
2022/01/15 02:58:54;;;;;;;;;;;27.60;99.90;;;;;;5095102;28;20003;-70
2022/01/15 03:01:21;;;;;;;;;;;27.50;99.90;;;;;;5095337;28;19908;-70
2022/01/15 03:03:48;;;;;;;;;;;27.30;99.90;;;;;;5094895;28;19961;-71
2022/01/15 03:06:15;;;;;;;;;;;27.30;99.90;;;;;;5095192;28;19908;-70
2022/01/15 03:08:43;;;;;;;;;;;27.20;99.90;;;;;;5094928;28;19916;-70
2022/01/15 03:11:11;;;;;;;;;;;27.10;99.90;;;;;;5095144;28;20285;-71
2022/01/15 03:13:38;;;;;;;;;;;27.00;99.90;;;;;;5095077;28;19947;-71
2022/01/15 03:16:06;;;;;;;;;;;26.80;99.90;;;;;;5094651;28;19908;-70
2022/01/15 03:18:32;;;;;;;;;;;26.70;99.90;;;;;;5094713;28;20019;-71
2022/01/15 03:20:59;;;;;;;;;;;26.60;99.90;;;;;;5094817;28;19989;-71
2022/01/15 03:23:26;;;;;;;;;;;26.50;99.90;;;;;;5094711;28;19912;-71
2022/01/15 03:25:52;;;;;;;;;;;26.60;99.90;;;;;;5094567;28;19942;-70
2022/01/15 03:28:19;;;;;;;;;;;26.60;99.90;;;;;;5094621;28;19916;-70
2022/01/15 03:30:46;;;;;;;;;;;26.70;99.90;;;;;;5094100;28;19908;-70
2022/01/15 03:33:18;;;;;;;;;;;26.70;99.90;;;;;;5094506;28;19923;-71
2022/01/15 03:35:45;;;;;;;;;;;26.70;99.90;;;;;;5094687;28;19908;-71
2022/01/15 03:38:12;;;;;;;;;;;26.70;99.90;;;;;;5094690;28;20041;-71
2022/01/15 03:40:38;;;;;;;;;;;26.70;99.90;;;;;;5094447;28;19915;-71
2022/01/15 03:43:05;;;;;;;;;;;26.70;99.90;;;;;;5094403;28;20350;-70
2022/01/15 03:45:32;;;;;;;;;;;26.60;99.90;;;;;;5094486;28;19915;-70
2022/01/15 03:47:59;;;;;;;;;;;26.70;99.90;;;;;;5093895;28;19924;-71
2022/01/15 03:50:26;;;;;;;;;;;26.80;99.90;;;;;;5094299;28;19916;-70
2022/01/15 03:52:53;;;;;;;;;;;26.90;99.90;;;;;;5094333;28;20007;-71
2022/01/15 03:55:21;;;;;;;;;;;26.90;99.90;;;;;;5094190;28;19908;-70
2022/01/15 03:57:47;;;;;;;;;;;27.10;99.90;;;;;;5094009;28;19909;-69
2022/01/15 04:00:16;;;;;;;;;;;27.20;99.90;;;;;;5094092;28;20003;-70
2022/01/15 04:02:43;;;;;;;;;;;27.20;99.90;;;;;;5093814;28;19915;-69
2022/01/15 04:05:10;;;;;;;;;;;27.10;99.90;;;;;;5094005;28;19916;-71
2022/01/15 04:07:37;;;;;;;;;;;27.00;99.90;;;;;;5094008;28;19923;-70
2022/01/15 04:10:06;;;;;;;;;;;27.00;99.90;;;;;;5093190;28;20375;-69
2022/01/15 04:12:33;;;;;;;;;;;27.00;99.90;;;;;;5126335;27;19950;-70
2022/01/15 04:15:00;;;;;;;;;;;27.00;99.90;;;;;;5093586;28;20367;-69
2022/01/15 04:17:26;;;;;;;;;;;27.00;99.90;;;;;;5093523;28;19954;-70
2022/01/15 04:19:53;;;;;;;;;;;27.10;99.90;;;;;;5093168;28;19943;-69
2022/01/15 04:22:20;;;;;;;;;;;27.10;99.90;;;;;;5093635;28;19912;-69
2022/01/15 04:24:46;;;;;;;;;;;26.80;99.90;;;;;;5093691;28;20367;-69
2022/01/15 04:27:13;;;;;;;;;;;26.60;99.90;;;;;;5093560;28;19923;-69
2022/01/15 04:29:40;;;;;;;;;;;26.70;99.90;;;;;;5093551;28;19920;-69
2022/01/15 04:32:07;;;;;;;;;;;26.80;99.90;;;;;;5093338;28;20293;-69
2022/01/15 04:34:33;;;;;;;;;;;26.90;99.90;;;;;;5093244;28;19908;-69
2022/01/15 04:37:08;;;;;;;;;;;26.90;99.90;;;;;;5093279;28;20286;-70
2022/01/15 04:39:35;;;;;;;;;;;26.80;99.90;;;;;;5093430;28;19916;-68
2022/01/15 04:42:05;;;;;;;;;;;26.80;99.90;;;;;;5092447;28;19909;-70
2022/01/15 04:44:32;;;;;;;;;;;26.80;99.90;;;;;;5093142;28;19916;-69
2022/01/15 04:46:59;;;;;;;;;;;26.80;99.90;;;;;;5093119;28;20367;-69
2022/01/15 04:49:25;;;;;;;;;;;26.80;99.90;;;;;;5091702;28;19918;-69
2022/01/15 04:51:52;;;;;;;;;;;26.80;99.90;;;;;;5092811;28;19908;-69
2022/01/15 04:54:19;;;;;;;;;;;26.70;99.90;;;;;;5093063;28;19953;-68
2022/01/15 04:56:45;;;;;;;;;;;26.70;99.90;;;;;;5093106;28;20362;-69
2022/01/15 04:59:12;;;;;;;;;;;26.70;99.90;;;;;;5093042;28;19908;-69
2022/01/15 05:01:39;;;;;;;;;;;26.60;99.90;;;;;;5092897;28;20312;-69
2022/01/15 05:04:05;;;;;;;;;;;26.40;99.90;;;;;;5092651;28;20400;-69
2022/01/15 05:06:32;;;;;;;;;;;26.20;99.90;;;;;;5092732;28;19912;-69
2022/01/15 05:09:05;;;;;;;;;;;26.30;99.90;;;;;;5093094;28;19908;-69
2022/01/15 05:11:48;;;;;;;;;;;26.40;99.90;;;;;;5092919;28;19927;-69
2022/01/15 05:14:15;;;;;;;;;;;26.40;99.90;;;;;;5092525;28;19908;-70
2022/01/15 05:16:42;;;;;;;;;;;26.40;99.90;;;;;;5092630;28;20383;-69
2022/01/15 05:19:09;;;;;;;;;;;26.50;99.90;;;;;;5092593;28;19908;-70
2022/01/15 05:21:36;;;;;;;;;;;26.40;99.90;;;;;;5092679;28;20000;-69
2022/01/15 05:24:03;;;;;;;;;;;26.30;99.90;;;;;;5092633;28;19908;-69
2022/01/15 05:26:30;;;;;;;;;;;26.20;99.90;;;;;;5092699;28;19926;-70
2022/01/15 05:28:57;;;;;;;;;;;26.00;99.90;;;;;;5092403;28;19920;-69
2022/01/15 05:31:24;;;;;;;;;;;26.00;99.90;;;;;;5092511;28;19908;-69
2022/01/15 05:33:51;;;;;;;;;;;25.90;99.90;;;;;;5092340;28;20316;-69
2022/01/15 05:36:18;;;;;;;;;;;25.80;99.90;;;;;;5092626;28;19962;-69
2022/01/15 05:38:44;;;;;;;;;;;25.70;99.90;;;;;;5092787;28;20312;-69
2022/01/15 05:41:11;;;;;;;;;;;25.80;99.90;;;;;;5092538;28;19908;-70
2022/01/15 05:43:38;;;;;;;;;;;25.80;99.90;;;;;;5092615;28;20066;-69
2022/01/15 05:46:04;;;;;;;;;;;25.70;99.90;;;;;;5092426;28;20359;-70
2022/01/15 05:48:31;;;;;;;;;;;25.60;99.90;;;;;;5092345;28;19920;-70
2022/01/15 05:50:58;;;;;;;;;;;25.60;99.90;;;;;;5092551;28;19908;-69
2022/01/15 05:53:24;;;;;;;;;;;25.50;99.90;;;;;;5092606;28;19962;-69
2022/01/15 05:55:51;;;;;;;;;;;25.40;99.90;;;;;;5096078;28;19999;-69
2022/01/15 05:58:17;;;;;;;;;;;25.50;99.90;;;;;;5096361;28;19908;-70
2022/01/15 06:00:44;;;;;;;;;;;25.50;99.90;;;;;;5096421;28;19916;-69
2022/01/15 06:03:11;;;;;;;;;;;25.50;99.90;;;;;;5096402;28;20007;-69
2022/01/15 06:05:37;;;;;;;;;;;25.50;99.90;;;;;;5096687;28;20338;-69
2022/01/15 06:08:04;;;;;;;;;;;25.60;99.90;;;;;;5096204;28;19957;-69
2022/01/15 06:10:31;;;;;;;;;;;25.70;99.90;;;;;;5096270;28;19920;-69
2022/01/15 06:12:57;;;;;;;;;;;25.70;99.90;;;;;;5097560;28;19918;-70
2022/01/15 06:15:24;;;;;;;;;;;25.70;99.90;;;;;;5096728;28;19908;-70
2022/01/15 06:17:51;;;;;;;;;;;25.80;99.90;;;;;;5096632;28;19908;-69
2022/01/15 06:20:18;;;;;;;;;;;25.90;99.90;;;;;;5096684;28;19931;-69
2022/01/15 06:22:44;;;;;;;;;;;26.10;99.90;;;;;;5096593;28;20259;-69
2022/01/15 06:25:11;;;;;;;;;;;26.20;99.90;;;;;;5096904;28;19995;-70
2022/01/15 06:27:38;;;;;;;;;;;26.30;99.90;;;;;;5098800;28;19927;-69
2022/01/15 06:30:05;;;;;;;;;;;26.30;99.90;;;;;;5095948;28;20011;-70
2022/01/15 06:32:36;;;;;;;;;;;26.30;99.90;;;;;;5095712;28;19925;-69
2022/01/15 06:35:10;;;;;;;;;;;26.20;99.90;;;;;;5095807;28;19943;-71
2022/01/15 06:37:38;;;;;;;;;;;26.10;99.90;;;;;;5095914;28;19908;-69
2022/01/15 06:40:05;;;;;;;;;;;26.10;99.90;;;;;;5081031;28;20007;-70
2022/01/15 06:42:33;;;;;;;;;;;26.00;99.90;;;;;;5075420;28;19909;-70
2022/01/15 06:44:59;;;;;;;;;;;25.90;99.90;;;;;;5075202;28;20011;-70
2022/01/15 06:47:26;;;;;;;;;;;25.90;99.90;;;;;;5074502;28;19916;-69
2022/01/15 06:49:53;;;;;;;;;;;26.00;99.90;;;;;;5074931;28;20275;-70
2022/01/15 06:52:24;;;;;;;;;;;26.10;99.90;;;;;;5075063;28;19966;-70
2022/01/15 06:54:51;;;;;;;;;;;26.10;99.90;;;;;;5075028;28;19908;-71
2022/01/15 06:57:17;;;;;;;;;;;26.20;99.90;;;;;;5075221;28;20367;-71
2022/01/15 06:59:44;;;;;;;;;;;26.30;99.90;;;;;;5074790;28;19935;-71
2022/01/15 07:02:11;;;;;;;;;;;26.40;99.90;;;;;;5074269;28;19999;-70
2022/01/15 07:04:38;;;;;;;;;;;26.50;99.90;;;;;;5074518;28;19970;-70
2022/01/15 07:07:05;;;;;;;;;;;26.50;99.90;;;;;;5073827;28;19923;-70
2022/01/15 07:09:32;;;;;;;;;;;26.50;99.90;;;;;;5074577;28;19908;-71
2022/01/15 07:11:59;;;;;;;;;;;26.40;99.90;;;;;;5074489;28;19948;-69
2022/01/15 07:14:26;;;;;;;;;;;26.50;99.90;;;;;;5074605;28;20434;-70
2022/01/15 07:16:53;;;;;;;;;;;26.50;99.90;;;;;;5074064;28;20233;-71
2022/01/15 07:19:19;;;;;;;;;;;26.50;99.90;;;;;;5075211;28;20379;-70
2022/01/15 07:21:47;;;;;;;;;;;26.50;99.90;;;;;;5074467;28;20002;-70
2022/01/15 07:24:14;;;;;;;;;;;26.50;99.90;;;;;;5074407;28;20274;-71
2022/01/15 07:26:40;;;;;;;;;;;26.50;99.90;;;;;;5074404;28;19978;-69
2022/01/15 07:29:14;;;;;;;;;;;26.50;99.90;;;;;;5074436;28;19915;-70
2022/01/15 07:31:41;;;;;;;;;;;26.50;99.90;;;;;;5073560;28;19915;-71
2022/01/15 07:34:08;;;;;;;;;;;26.50;99.90;;;;;;5073464;28;19908;-70
2022/01/15 07:36:34;;;;;;;;;;;26.60;99.90;;;;;;5074315;28;19912;-70
2022/01/15 07:39:01;;;;;;;;;;;26.50;99.90;;;;;;5074209;28;20339;-71
2022/01/15 07:41:28;;;;;;;;;;;26.50;99.90;;;;;;5074398;28;19962;-71
2022/01/15 07:43:54;;;;;;;;;;;26.50;99.90;;;;;;5073934;28;19909;-70
2022/01/15 07:46:21;;;;;;;;;;;26.50;99.90;;;;;;5073829;28;19924;-70
2022/01/15 07:48:48;;;;;;;;;;;26.50;99.90;;;;;;5073917;28;19938;-70
2022/01/15 07:51:15;;;;;;;;;;;26.40;99.90;;;;;;5073810;28;19913;-70
2022/01/15 07:53:41;;;;;;;;;;;26.40;99.90;;;;;;5073880;28;19948;-70
2022/01/15 07:56:08;;;;;;;;;;;26.40;99.90;;;;;;5073637;28;19931;-69
2022/01/15 07:58:35;;;;;;;;;;;26.30;99.90;;;;;;5073753;28;19912;-69
2022/01/15 08:01:01;;;;;;;;;;;26.30;99.90;;;;;;5073528;28;19942;-70
2022/01/15 08:03:28;;;;;;;;;;;26.30;99.90;;;;;;5073873;28;19908;-70
2022/01/15 08:05:55;;;;;;;;;;;26.20;99.90;;;;;;5073343;28;20442;-71
2022/01/15 08:08:21;;;;;;;;;;;26.20;99.90;;;;;;5073502;28;20355;-71
2022/01/15 08:10:48;;;;;;;;;;;26.10;99.90;;;;;;5073404;28;19927;-70
2022/01/15 08:13:16;;;;;;;;;;;26.00;99.90;;;;;;5073434;28;19943;-69
2022/01/15 08:15:42;;;;;;;;;;;26.00;99.90;;;;;;5073544;28;20335;-71
2022/01/15 08:18:09;;;;;;;;;;;26.00;99.90;;;;;;5072929;28;19916;-70
2022/01/15 08:20:36;;;;;;;;;;;25.90;99.90;;;;;;5073398;28;19908;-70
2022/01/15 08:23:02;;;;;;;;;;;25.90;99.90;;;;;;5073445;28;19915;-72
2022/01/15 08:25:30;;;;;;;;;;;25.90;99.90;;;;;;5073248;28;19916;-69
2022/01/15 08:27:57;;;;;;;;;;;25.90;99.90;;;;;;5072995;28;19921;-71
2022/01/15 08:30:23;;;;;;;;;;;25.80;99.90;;;;;;5073099;28;19909;-71
2022/01/15 08:32:50;;;;;;;;;;;25.80;99.90;;;;;;5073066;28;19912;-69
2022/01/15 08:35:17;;;;;;;;;;;25.70;99.90;;;;;;5072846;28;19961;-70
2022/01/15 08:37:44;;;;;;;;;;;25.70;99.90;;;;;;5072994;28;19993;-69
2022/01/15 08:40:12;;;;;;;;;;;25.60;99.90;;;;;;5073028;28;19909;-69
2022/01/15 08:42:39;;;;;;;;;;;25.60;99.90;;;;;;5072967;28;19915;-70
2022/01/15 08:45:06;;;;;;;;;;;25.50;99.90;;;;;;5072802;28;19914;-70
2022/01/15 08:47:33;;;;;;;;;;;25.40;99.90;;;;;;5072647;28;20046;-70
2022/01/15 08:50:00;;;;;;;;;;;25.30;99.90;;;;;;5072662;28;19912;-71
2022/01/15 08:52:27;;;;;;;;;;;25.30;99.90;;;;;;5072960;28;19909;-71
2022/01/15 08:54:53;;;;;;;;;;;25.30;99.90;;;;;;5072779;28;20373;-70
2022/01/15 08:57:20;;;;;;;;;;;25.20;99.90;;;;;;5072705;28;19966;-71
2022/01/15 08:59:47;;;;;;;;;;;25.20;99.90;;;;;;5072496;28;19908;-70
2022/01/15 09:02:13;;;;;;;;;;;25.20;99.90;;;;;;5072687;28;19967;-69
2022/01/15 09:04:40;;;;;;;;;;;25.20;99.90;;;;;;5072853;28;19912;-70
2022/01/15 09:07:08;;;;;;;;;;;25.10;99.90;;;;;;5072598;28;20347;-70
2022/01/15 09:09:34;;;;;;;;;;;25.10;99.90;;;;;;5072353;28;20331;-70
2022/01/15 09:12:01;;;;;;;;;;;25.00;99.90;;;;;;5072421;28;19942;-70
2022/01/15 09:14:28;;;;;;;;;;;25.10;99.90;;;;;;5072622;28;19909;-70
2022/01/15 09:16:54;;;;;;;;;;;25.10;99.90;;;;;;5072474;28;20367;-72
2022/01/15 09:19:21;;;;;;;;;;;25.00;99.90;;;;;;5072403;28;19908;-71
2022/01/15 09:21:48;;;;;;;;;;;25.10;99.90;;;;;;5072309;28;19961;-71
2022/01/15 09:24:16;;;;;;;;;;;25.00;99.90;;;;;;5072568;28;20351;-71
2022/01/15 09:32:07;;;;;;;;;;;25.10;99.90;;;;;;5072254;28;19920;-70
2022/01/15 09:34:34;;;;;;;;;;;25.00;99.90;;;;;;5072264;28;19909;-71
2022/01/15 09:37:02;;;;;;;;;;;25.00;99.90;;;;;;5072348;28;19915;-71
2022/01/15 09:39:28;;;;;;;;;;;25.00;99.90;;;;;;5072378;28;19908;-71
2022/01/15 09:41:55;;;;;;;;;;;25.00;99.90;;;;;;5072146;28;20332;-70
2022/01/15 09:44:22;;;;;;;;;;;25.00;99.90;;;;;;5072190;28;19908;-70
2022/01/15 09:46:50;;;;;;;;;;;25.00;99.90;;;;;;5072336;28;19923;-72
2022/01/15 09:49:17;;;;;;;;;;;25.00;99.90;;;;;;5072301;28;19908;-71
2022/01/15 09:51:45;;;;;;;;;;;25.00;99.90;;;;;;5072090;28;19998;-70
2022/01/15 09:54:12;;;;;;;;;;;24.90;99.90;;;;;;5072127;28;19913;-70
2022/01/15 09:56:39;;;;;;;;;;;25.00;99.90;;;;;;5072029;28;19909;-71
2022/01/15 09:59:06;;;;;;;;;;;24.90;99.90;;;;;;5072050;28;19951;-71
2022/01/15 10:01:35;;;;;;;;;;;24.90;99.90;;;;;;5071930;28;20003;-69
2022/01/15 10:04:02;;;;;;;;;;;24.90;99.90;;;;;;5071677;28;19908;-69
2022/01/15 10:06:29;;;;;;;;;;;24.90;99.90;;;;;;5072022;28;19909;-68
2022/01/15 10:09:02;;;;;;;;;;;24.90;99.90;;;;;;5072159;28;19912;-68
2022/01/15 10:11:41;;;;;;;;;;;24.90;99.90;;;;;;5071797;28;20378;-71
2022/01/15 10:14:27;;;;;;;;;;;24.90;99.90;;;;;;5071899;28;19908;-70
2022/01/15 10:16:55;;;;;;;;;;;24.90;99.90;;;;;;5072022;28;20051;-70
2022/01/15 10:19:32;;;;;;;;;;;24.90;99.90;;;;;;5072285;28;19953;-70
2022/01/15 10:22:05;;;;;;;;;;;24.90;99.90;;;;;;5071620;28;20382;-70
2022/01/15 10:24:32;;;;;;;;;;;25.00;99.90;;;;;;5071852;28;20297;-71
2022/01/15 10:27:16;;;;;;;;;;;25.00;99.90;;;;;;5071624;28;20019;-70
2022/01/15 10:29:48;;;;;;;;;;;24.90;99.90;;;;;;5071834;28;19909;-70
2022/01/15 10:32:15;;;;;;;;;;;24.90;99.90;;;;;;5071638;28;19962;-69
2022/01/15 10:34:45;;;;;;;;;;;24.80;99.90;;;;;;5071729;28;19953;-70
2022/01/15 10:37:13;;;;;;;;;;;24.80;99.90;;;;;;5071539;28;20007;-69
2022/01/15 10:39:41;;;;;;;;;;;24.80;99.90;;;;;;5072151;28;19909;-70
2022/01/15 10:42:22;;;;;;;;;;;24.80;99.90;;;;;;5074996;28;19944;-70
2022/01/15 10:44:49;;;;;;;;;;;24.80;99.90;;;;;;5075318;28;19909;-71
2022/01/15 10:47:17;;;;;;;;;;;24.70;99.90;;;;;;5074965;28;19916;-71
2022/01/15 10:49:44;;;;;;;;;;;24.70;99.90;;;;;;5075263;28;19912;-70
2022/01/15 10:52:19;;;;;;;;;;;24.70;99.90;;;;;;5074951;28;20353;-70
2022/01/15 10:54:51;;;;;;;;;;;24.70;99.90;;;;;;5075112;28;20381;-71
2022/01/15 10:57:19;;;;;;;;;;;24.70;99.90;;;;;;5075041;28;19940;-70
2022/01/15 11:00:06;;;;;;;;;;;24.80;99.90;;;;;;5074819;28;19915;-71
2022/01/15 11:02:33;;;;;;;;;;;24.70;99.90;;;;;;5074960;28;19908;-70
2022/01/15 11:05:00;;;;;;;;;;;24.80;99.90;;;;;;5075025;28;19920;-70
2022/01/15 11:07:27;;;;;;;;;;;24.80;99.90;;;;;;5074826;28;19917;-71
2022/01/15 11:09:53;;;;;;;;;;;24.80;99.90;;;;;;5074494;28;20320;-71
2022/01/15 11:12:26;;;;;;;;;;;24.80;99.90;;;;;;5074787;28;19912;-71
2022/01/15 11:14:53;;;;;;;;;;;24.80;99.90;;;;;;5074750;28;19916;-71
2022/01/15 11:17:19;;;;;;;;;;;24.80;99.90;;;;;;5074553;28;19916;-71
2022/01/15 11:19:46;;;;;;;;;;;24.70;99.90;;;;;;5074553;28;19909;-70
2022/01/15 11:22:18;;;;;;;;;;;24.70;99.90;;;;;;5074660;28;19908;-70
2022/01/15 11:24:45;;;;;;;;;;;24.70;99.90;;;;;;5074452;28;19908;-71
2022/01/15 11:27:12;;;;;;;;;;;24.70;99.90;;;;;;5074452;28;19917;-70
2022/01/15 11:29:42;;;;;;;;;;;24.60;99.90;;;;;;5074640;28;19908;-71
2022/01/15 11:32:10;;;;;;;;;;;24.60;99.90;;;;;;5074358;28;19915;-70
2022/01/15 11:34:38;;;;;;;;;;;24.60;99.90;;;;;;5074646;28;19909;-70
2022/01/15 11:37:20;;;;;;;;;;;24.60;99.90;;;;;;5074288;28;19909;-69
2022/01/15 11:39:47;;;;;;;;;;;24.60;99.90;;;;;;5073805;28;19915;-69
2022/01/15 11:42:27;;;;;;;;;;;24.60;99.90;;;;;;5074202;28;20244;-71
2022/01/15 11:44:54;;;;;;;;;;;24.60;99.90;;;;;;5073877;28;19999;-70
2022/01/15 11:47:25;;;;;;;;;;;24.60;99.90;;;;;;5080580;28;19946;-71
2022/01/15 11:49:58;;;;;;;;;;;24.60;99.90;;;;;;5093962;28;19930;-71
2022/01/15 11:52:26;;;;;;;;;;;24.60;99.90;;;;;;5093547;28;19954;-71
2022/01/15 11:54:55;;;;;;;;;;;24.60;99.90;;;;;;5094254;28;19908;-72
2022/01/15 11:57:31;;;;;;;;;;;24.50;99.90;;;;;;5094238;28;19908;-70
2022/01/15 11:59:59;;;;;;;;;;;24.60;99.90;;;;;;5093096;28;19908;-70
2022/01/15 12:02:30;;;;;;;;;;;24.50;99.90;;;;;;5094032;28;19908;-70
2022/01/15 12:05:18;;;;;;;;;;;24.50;99.90;;;;;;5094002;28;19908;-71
2022/01/15 12:07:45;;;;;;;;;;;24.50;99.90;;;;;;5093934;28;19916;-71
2022/01/15 12:10:12;;;;;;;;;;;24.50;99.90;;;;;;5093887;28;20125;-70
2022/01/15 12:12:48;;;;;;;;;;;24.50;99.90;;;;;;5093722;28;19908;-70
2022/01/15 12:15:26;;;;;;;;;;;24.40;99.90;;;;;;5093103;28;20328;-70
2022/01/15 12:17:54;;;;;;;;;;;24.40;99.90;;;;;;5093612;28;19908;-71
2022/01/15 12:20:21;;;;;;;;;;;24.40;99.90;;;;;;5093720;28;19934;-71
2022/01/15 12:22:52;;;;;;;;;;;24.30;99.90;;;;;;5093741;28;20270;-71
2022/01/15 12:25:18;;;;;;;;;;;24.20;99.90;;;;;;5093771;28;19908;-70
2022/01/15 12:27:46;;;;;;;;;;;24.20;99.90;;;;;;5093587;28;19920;-71
2022/01/15 12:30:16;;;;;;;;;;;24.20;99.90;;;;;;5092902;28;20010;-70
2022/01/15 12:32:44;;;;;;;;;;;24.10;99.90;;;;;;5093578;28;19923;-70
2022/01/15 12:35:22;;;;;;;;;;;24.10;99.90;;;;;;5093506;28;20275;-69
2022/01/15 12:38:12;;;;;;;;;;;24.10;99.90;;;;;;5093308;28;19908;-70
2022/01/15 12:40:40;;;;;;;;;;;24.10;99.90;;;;;;5093344;28;20282;-70
2022/01/15 12:43:06;;;;;;;;;;;24.10;99.90;;;;;;5079274;28;20359;-71
2022/01/15 12:45:34;;;;;;;;;;;24.10;99.90;;;;;;5072491;28;19915;-69
2022/01/15 12:48:01;;;;;;;;;;;24.00;99.90;;;;;;5072695;28;19927;-71
2022/01/15 12:50:28;;;;;;;;;;;24.00;99.90;;;;;;5072951;28;19912;-70
2022/01/15 12:53:01;;;;;;;;;;;24.00;99.90;;;;;;5072802;28;20271;-71
2022/01/15 12:55:37;;;;;;;;;;;23.90;99.90;;;;;;5072578;28;20385;-71
2022/01/15 12:58:04;;;;;;;;;;;23.90;99.90;;;;;;5072712;28;19908;-71
2022/01/15 13:00:32;;;;;;;;;;;23.90;99.90;;;;;;5072633;28;20376;-70
2022/01/15 13:03:06;;;;;;;;;;;23.90;99.90;;;;;;5072281;28;20339;-70
2022/01/15 13:05:34;;;;;;;;;;;23.90;99.90;;;;;;5072780;28;20390;-70
2022/01/15 13:08:03;;;;;;;;;;;23.90;99.90;;;;;;5072473;28;20282;-70
2022/01/15 13:10:53;;;;;;;;;;;23.90;99.90;;;;;;5072544;28;19992;-70
2022/01/15 13:13:24;;;;;;;;;;;23.80;99.90;;;;;;5072768;28;19913;-70
2022/01/15 13:16:10;;;;;;;;;;;23.80;99.90;;;;;;5072298;28;19913;-69
2022/01/15 13:18:41;;;;;;;;;;;23.80;99.90;;;;;;5068623;28;19992;-70
2022/01/15 13:21:12;;;;;;;;;;;23.80;99.90;;;;;;5072622;28;19915;-69
2022/01/15 13:23:43;;;;;;;;;;;23.80;99.90;;;;;;5072461;28;19908;-70
2022/01/15 13:26:12;;;;;;;;;;;23.80;99.90;;;;;;5072254;28;20007;-70
2022/01/15 13:28:41;;;;;;;;;;;23.70;99.90;;;;;;5072478;28;19923;-69
2022/01/15 13:31:08;;;;;;;;;;;23.70;99.90;;;;;;5072334;28;19908;-69
2022/01/15 13:33:42;;;;;;;;;;;23.70;99.90;;;;;;5072459;28;20014;-70
2022/01/15 13:36:10;;;;;;;;;;;23.60;99.90;;;;;;5072195;28;19916;-69
2022/01/15 13:38:37;;;;;;;;;;;23.70;99.90;;;;;;5072388;28;20302;-69
2022/01/15 13:41:15;;;;;;;;;;;23.70;99.90;;;;;;5072458;28;19912;-70
2022/01/15 13:43:44;;;;;;;;;;;23.60;99.90;;;;;;5072377;28;19908;-69
2022/01/15 13:46:12;;;;;;;;;;;23.60;99.90;;;;;;5071942;28;19909;-70
2022/01/15 13:48:39;;;;;;;;;;;23.50;99.90;;;;;;5072134;28;20062;-69
2022/01/15 13:54:10;;;;;;;;;;;23.50;99.90;;;;;;5072462;28;19931;-69
2022/01/15 13:56:41;;;;;;;;;;;23.40;99.90;;;;;;5072170;28;20256;-70
2022/01/15 13:59:09;;;;;;;;;;;23.40;99.90;;;;;;5072067;28;19999;-69
2022/01/15 14:01:56;;;;;;;;;;;23.30;99.90;;;;;;5072337;28;19947;-69
2022/01/15 14:04:25;;;;;;;;;;;23.30;99.90;;;;;;5072237;28;19915;-70
2022/01/15 14:06:52;;;;;;;;;;;23.30;99.90;;;;;;5072089;28;19920;-71
2022/01/15 14:09:19;;;;;;;;;;;23.30;99.90;;;;;;5071950;28;19912;-70
2022/01/15 14:11:56;;;;;;;;;;;23.30;99.90;;;;;;5071943;28;19947;-69
2022/01/15 14:14:23;;;;;;;;;;;23.30;99.90;;;;;;5072150;28;19908;-71
2022/01/15 14:16:54;;;;;;;;;;;23.20;99.90;;;;;;5075956;28;19913;-71
2022/01/15 14:19:49;;;;;;;;;;;23.20;99.90;;;;;;5075898;28;19935;-70
2022/01/15 14:22:17;;;;;;;;;;;23.30;99.90;;;;;;5075792;28;19987;-70
2022/01/15 14:24:44;;;;;;;;;;;23.20;99.90;;;;;;5075726;28;19908;-70
2022/01/15 14:27:36;;;;;;;;;;;23.30;99.90;;;;;;5075842;28;19966;-70
2022/01/15 14:30:04;;;;;;;;;;;23.30;99.90;;;;;;5074101;28;19908;-70
2022/01/15 14:32:31;;;;;;;;;;;23.20;99.90;;;;;;5075645;28;19908;-70
2022/01/15 14:34:58;;;;;;;;;;;23.30;99.90;;;;;;5075641;28;20252;-70
2022/01/15 14:37:25;;;;;;;;;;;23.30;99.90;;;;;;5075606;28;19915;-69
2022/01/15 14:39:55;;;;;;;;;;;23.30;99.90;;;;;;5075374;28;19942;-70
2022/01/15 14:42:23;;;;;;;;;;;23.30;99.90;;;;;;5075468;28;20003;-69
2022/01/15 14:44:53;;;;;;;;;;;23.30;99.90;;;;;;5075254;28;20391;-70
2022/01/15 14:47:20;;;;;;;;;;;23.30;99.90;;;;;;5075035;28;19921;-69
2022/01/15 14:49:47;;;;;;;;;;;23.30;99.90;;;;;;5075190;28;19915;-69